createdAt,value
2018-12-17T00:04:08.597Z,43.03
2018-12-17T00:09:01.734Z,44.63
2018-12-17T00:13:54.965Z,43.17
2018-12-17T00:18:50.499Z,38.53
2018-12-17T00:23:43.539Z,38.93
2018-12-17T00:28:36.408Z,39.73
2018-12-17T00:33:29.684Z,38.83
2018-12-17T00:38:22.776Z,41.13
2018-12-17T00:43:16.233Z,42.10
2018-12-17T00:48:09.304Z,39.43
2018-12-17T00:53:05.190Z,41.03
2018-12-17T00:57:58.601Z,40.93
2018-12-17T01:02:51.622Z,39.60
2018-12-17T01:07:45.544Z,45.00
2018-12-17T01:12:38.446Z,40.13
2018-12-17T01:17:31.516Z,41.23
2018-12-17T01:22:24.587Z,42.73
2018-12-17T01:27:17.581Z,42.47
2018-12-17T01:32:10.631Z,41.83
2018-12-17T01:37:03.898Z,43.00
2018-12-17T01:41:57.174Z,51.07
2018-12-17T01:46:50.347Z,44.93
2018-12-17T01:51:43.513Z,46.17
2018-12-17T01:56:36.590Z,42.60
2018-12-17T02:01:29.661Z,44.37
2018-12-17T02:06:22.629Z,42.10
2018-12-17T02:11:15.765Z,41.87
2018-12-17T02:16:08.975Z,41.83
2018-12-17T02:21:02.150Z,46.53
2018-12-17T02:25:54.956Z,46.40
2018-12-17T02:30:49.108Z,41.63
2018-12-17T02:35:42.221Z,48.40
2018-12-17T02:40:35.313Z,49.93
2018-12-17T02:45:28.579Z,49.37
2018-12-17T02:50:22.837Z,45.43
2018-12-17T02:55:17.533Z,43.20
2018-12-17T03:00:10.808Z,41.40
2018-12-17T03:05:06.111Z,46.90
2018-12-17T03:09:59.360Z,46.90
2018-12-17T03:14:52.500Z,49.47
2018-12-17T03:19:45.751Z,43.60
2018-12-17T03:24:38.925Z,44.27
2018-12-17T03:29:31.893Z,47.27
2018-12-17T03:34:24.963Z,43.60
2018-12-17T03:39:18.853Z,44.93
2018-12-17T03:44:11.696Z,44.97
2018-12-17T03:49:04.789Z,45.67
2018-12-17T03:53:59.706Z,43.93
2018-12-17T03:58:59.071Z,44.10
2018-12-17T04:03:48.718Z,42.77
2018-12-17T04:08:58.289Z,42.03
2018-12-17T04:13:51.881Z,44.87
2018-12-17T04:18:46.623Z,43.60
2018-12-17T04:23:39.737Z,41.23
2018-12-17T04:28:32.802Z,40.70
2018-12-17T04:33:26.078Z,42.17
2018-12-17T04:38:19.049Z,44.10
2018-12-17T04:43:12.021Z,45.10
2018-12-17T04:48:05.752Z,39.47
2018-12-17T04:52:58.728Z,42.53
2018-12-17T04:57:52.251Z,43.13
2018-12-17T05:02:45.388Z,42.77
2018-12-17T05:07:39.272Z,43.17
2018-12-17T05:12:34.477Z,39.23
2018-12-17T05:17:29.731Z,41.60
2018-12-17T05:22:23.029Z,41.03
2018-12-17T05:27:16.099Z,42.97
2018-12-17T05:32:11.114Z,44.03
2018-12-17T05:37:04.812Z,45.43
2018-12-17T05:41:57.972Z,43.43
2018-12-17T05:46:51.247Z,50.37
2018-12-17T05:51:44.228Z,46.17
2018-12-17T05:56:37.137Z,43.27
2018-12-17T06:01:31.278Z,40.77
2018-12-17T06:06:25.219Z,40.30
2018-12-17T06:11:19.559Z,41.70
2018-12-17T06:16:12.525Z,42.23
2018-12-17T06:21:05.567Z,39.60
2018-12-17T06:25:58.475Z,40.80
2018-12-17T06:30:51.550Z,36.80
2018-12-17T06:35:44.614Z,39.73
2018-12-17T06:40:39.737Z,37.83
2018-12-17T06:45:32.823Z,39.77
2018-12-17T06:50:25.809Z,36.47
2018-12-17T06:55:18.958Z,38.17
2018-12-17T07:00:12.064Z,38.47
2018-12-17T07:05:06.830Z,37.47
2018-12-17T07:10:00.616Z,36.70
2018-12-17T07:14:54.607Z,35.57
2018-12-17T07:19:48.270Z,38.53
2018-12-17T07:24:43.181Z,38.27
2018-12-17T07:29:36.080Z,33.60
2018-12-17T07:34:29.442Z,32.87
2018-12-17T07:39:22.313Z,32.17
2018-12-17T07:44:16.552Z,34.10
2018-12-17T07:49:09.482Z,32.47
2018-12-17T07:54:02.652Z,31.60
2018-12-17T07:58:55.526Z,31.40
2018-12-17T08:03:48.595Z,27.30
2018-12-17T08:08:41.537Z,28.77
2018-12-17T08:13:35.958Z,26.47
2018-12-17T08:18:31.179Z,28.20
2018-12-17T08:23:24.966Z,29.53
2018-12-17T08:28:19.136Z,27.30
2018-12-17T08:33:12.028Z,28.00
2018-12-17T08:38:11.267Z,26.13
2018-12-17T08:43:06.072Z,27.90
2018-12-17T08:48:00.769Z,31.80
2018-12-17T08:52:55.104Z,25.17
2018-12-17T08:57:48.063Z,27.77
2018-12-17T09:02:41.144Z,78.20
2018-12-17T09:07:34.890Z,28.83
2018-12-17T09:12:28.882Z,31.80
2018-12-17T09:17:22.315Z,31.13
2018-12-17T09:22:15.333Z,30.97
2018-12-17T09:27:08.954Z,35.77
2018-12-17T09:32:03.313Z,33.97
2018-12-17T09:36:56.283Z,35.73
2018-12-17T09:41:49.260Z,38.07
2018-12-17T09:46:42.883Z,33.97
2018-12-17T09:51:35.909Z,38.40
2018-12-17T09:56:30.816Z,32.40
2018-12-17T10:01:24.972Z,33.07
2018-12-17T10:06:20.468Z,36.83
2018-12-17T10:11:13.921Z,37.53
2018-12-17T10:16:06.887Z,38.13
2018-12-17T10:20:59.754Z,43.40
2018-12-17T10:25:52.887Z,39.47
2018-12-17T10:30:45.895Z,37.23
2018-12-17T10:35:38.861Z,41.83
2018-12-17T10:40:33.774Z,38.13
2018-12-17T10:45:27.875Z,42.20
2018-12-17T10:50:22.030Z,42.73
2018-12-17T10:55:16.719Z,43.47
2018-12-17T11:00:13.308Z,38.60
2018-12-17T11:05:08.565Z,39.10
2018-12-17T11:10:05.681Z,40.67
2018-12-17T11:15:04.198Z,44.17
2018-12-17T11:20:01.672Z,41.10
2018-12-17T11:24:58.848Z,40.80
2018-12-17T11:29:51.917Z,43.57
2018-12-17T11:34:44.889Z,41.03
2018-12-17T11:39:38.374Z,42.00
2018-12-17T11:44:31.594Z,43.30
2018-12-17T11:49:25.386Z,43.57
2018-12-17T11:54:19.234Z,43.03
2018-12-17T11:59:13.491Z,35.27
2018-12-17T12:04:06.557Z,36.13
2018-12-17T12:09:02.221Z,33.00
2018-12-17T12:13:58.950Z,35.97
2018-12-17T12:18:52.080Z,33.30
2018-12-17T12:23:45.052Z,40.63
2018-12-17T12:28:38.087Z,38.93
2018-12-17T12:33:32.794Z,39.73
2018-12-17T12:38:26.581Z,45.90
2018-12-17T12:43:20.620Z,38.03
2018-12-17T12:48:13.747Z,35.47
2018-12-17T12:53:06.765Z,43.30
2018-12-17T12:58:03.649Z,38.67
2018-12-17T13:02:54.904Z,41.30
2018-12-17T13:07:48.280Z,40.50
2018-12-17T13:12:42.193Z,38.30
2018-12-17T13:17:35.863Z,36.80
2018-12-17T13:22:29.052Z,35.77
2018-12-17T13:27:22.102Z,42.13
2018-12-17T13:32:17.162Z,35.13
2018-12-17T13:37:10.903Z,39.03
2018-12-17T13:42:04.381Z,43.70
2018-12-17T13:46:58.288Z,35.97
2018-12-17T13:51:56.974Z,41.40
2018-12-17T13:56:49.841Z,39.83
2018-12-17T14:01:48.222Z,47.10
2018-12-17T14:06:40.181Z,42.63
2018-12-17T14:11:33.889Z,49.07
2018-12-17T14:16:28.989Z,44.27
2018-12-17T14:21:30.395Z,55.03
2018-12-17T14:26:23.420Z,50.67
2018-12-17T14:31:16.589Z,53.03
2018-12-17T14:36:10.631Z,57.83
2018-12-17T14:41:04.266Z,58.40
2018-12-17T14:45:57.236Z,64.80
2018-12-17T14:50:51.127Z,60.63
2018-12-17T14:55:44.193Z,55.63
2018-12-17T15:00:37.510Z,59.50
2018-12-17T15:05:30.528Z,51.10
2018-12-17T15:10:23.409Z,52.87
2018-12-17T15:15:16.383Z,55.10
2018-12-17T15:20:11.289Z,58.73
2018-12-17T15:25:06.990Z,58.07
2018-12-17T15:30:00.295Z,61.87
2018-12-17T15:34:53.185Z,64.80
2018-12-17T15:39:48.280Z,57.47
2018-12-17T15:44:43.399Z,59.43
2018-12-17T15:49:36.475Z,62.80
2018-12-17T15:54:29.537Z,60.33
2018-12-17T15:59:22.818Z,57.17
2018-12-17T16:04:15.883Z,63.57
2018-12-17T16:09:08.860Z,64.73
2018-12-17T16:14:02.130Z,97.23
2018-12-17T16:18:55.916Z,64.97
2018-12-17T16:23:49.535Z,66.57
2018-12-17T16:28:42.431Z,62.37
2018-12-17T16:33:35.563Z,62.40
2018-12-17T16:38:29.830Z,58.47
2018-12-17T16:43:22.965Z,57.20
2018-12-17T16:48:16.793Z,58.27
2018-12-17T16:53:10.158Z,56.80
2018-12-17T16:58:04.675Z,55.00
2018-12-17T17:02:58.127Z,56.97
2018-12-17T17:07:51.123Z,57.67
2018-12-17T17:12:45.418Z,55.10
2018-12-17T17:17:38.696Z,63.97
2018-12-17T17:22:38.732Z,55.20
2018-12-17T17:27:32.826Z,57.20
2018-12-17T17:32:25.898Z,81.57
2018-12-17T17:37:19.507Z,66.93
2018-12-17T17:42:12.549Z,62.63
2018-12-17T17:47:05.743Z,87.10
2018-12-17T17:51:59.447Z,67.97
2018-12-17T17:56:52.373Z,69.23
2018-12-17T18:01:45.282Z,60.53
2018-12-17T18:06:41.087Z,58.23
2018-12-17T18:11:34.419Z,59.63
2018-12-17T18:16:27.622Z,61.70
2018-12-17T18:21:20.496Z,61.27
2018-12-17T18:26:13.562Z,56.67
2018-12-17T18:31:06.529Z,54.93
2018-12-17T18:35:59.538Z,64.33
2018-12-17T18:40:52.465Z,68.60
2018-12-17T18:45:45.557Z,65.30
2018-12-17T18:50:38.504Z,60.50
2018-12-17T18:55:32.068Z,60.37
2018-12-17T19:00:27.109Z,61.20
2018-12-17T19:05:20.171Z,62.77
2018-12-17T19:10:13.042Z,58.90
2018-12-17T19:15:06.516Z,56.40
2018-12-17T19:19:59.588Z,62.20
2018-12-17T19:24:52.657Z,60.60
2018-12-17T19:29:45.598Z,54.37
2018-12-17T19:34:38.798Z,60.10
2018-12-17T19:39:31.809Z,56.67
2018-12-17T19:44:24.735Z,59.97
2018-12-17T19:49:17.861Z,56.97
2018-12-17T19:54:10.773Z,63.40
2018-12-17T19:59:03.845Z,60.23
2018-12-17T20:03:56.812Z,61.33
2018-12-17T20:08:49.825Z,91.57
2018-12-17T20:13:43.536Z,75.20
2018-12-17T20:18:38.187Z,80.73
2018-12-17T20:23:32.240Z,56.00
2018-12-17T20:28:25.342Z,52.33
2018-12-17T20:33:18.205Z,52.37
2018-12-17T20:38:12.558Z,50.10
2018-12-17T20:43:06.342Z,48.17
2018-12-17T20:48:01.213Z,47.67
2018-12-17T20:52:54.279Z,48.60
2018-12-17T20:57:47.449Z,50.50
2018-12-17T21:02:40.315Z,48.63
2018-12-17T21:07:33.815Z,47.23
2018-12-17T21:12:27.890Z,44.70
2018-12-17T21:17:20.957Z,46.70
2018-12-17T21:22:14.232Z,50.17
2018-12-17T21:27:07.449Z,50.73
2018-12-17T21:32:01.399Z,47.13
2018-12-17T21:36:57.420Z,49.43
2018-12-17T21:41:50.215Z,50.67
2018-12-17T21:46:43.274Z,45.93
2018-12-17T21:51:36.421Z,50.10
2018-12-17T21:56:30.029Z,51.03
2018-12-17T22:01:24.530Z,46.13
2018-12-17T22:06:17.703Z,44.50
2018-12-17T22:11:10.772Z,43.90
2018-12-17T22:16:05.008Z,40.30
2018-12-17T22:20:58.647Z,45.63
2018-12-17T22:25:52.851Z,42.17
2018-12-17T22:30:47.242Z,44.87
2018-12-17T22:35:40.293Z,44.90
2018-12-17T22:40:33.443Z,42.10
2018-12-17T22:45:26.265Z,40.43
2018-12-17T22:50:19.910Z,36.40
2018-12-17T22:55:14.161Z,38.30
2018-12-17T23:00:09.578Z,38.17
2018-12-17T23:05:02.636Z,43.00
2018-12-17T23:10:07.280Z,43.13
2018-12-17T23:15:12.022Z,44.70
2018-12-17T23:20:05.302Z,39.00
2018-12-17T23:24:58.172Z,34.57
2018-12-17T23:29:51.135Z,38.10
2018-12-17T23:34:44.100Z,36.60
2018-12-17T23:39:36.965Z,33.93
2018-12-17T23:44:33.874Z,37.57
2018-12-17T23:49:27.917Z,33.33
2018-12-17T23:54:21.820Z,41.93
2018-12-17T23:59:15.084Z,38.53
